sensor_id;sensor_type;location;lat;lon;timestamp;pressure;altitude;pressure_sealevel;temperature;humidity
31346;BME280;21711;49.708;18.568;2024-03-07T00:00:09;97701.91;;;3.59;100.00
31346;BME280;21711;49.708;18.568;2024-03-07T00:02:48;97690.13;;;3.49;100.00
31346;BME280;21711;49.708;18.568;2024-03-07T00:05:19;97705.50;;;3.39;100.00
31346;BME280;21711;49.708;18.568;2024-03-07T00:07:47;97698.66;;;3.38;100.00
31346;BME280;21711;49.708;18.568;2024-03-07T00:10:15;97694.38;;;3.44;100.00
31346;BME280;21711;49.708;18.568;2024-03-07T00:12:44;97708.22;;;3.70;100.00
31346;BME280;21711;49.708;18.568;2024-03-07T00:15:12;97701.47;;;3.62;100.00
31346;BME280;21711;49.708;18.568;2024-03-07T00:17:41;97700.91;;;3.34;100.00
31346;BME280;21711;49.708;18.568;2024-03-07T00:20:10;97704.94;;;3.55;100.00
31346;BME280;21711;49.708;18.568;2024-03-07T00:22:43;97698.00;;;3.42;100.00
31346;BME280;21711;49.708;18.568;2024-03-07T00:25:11;97700.69;;;3.36;100.00
31346;BME280;21711;49.708;18.568;2024-03-07T00:27:42;97699.91;;;3.54;100.00
31346;BME280;21711;49.708;18.568;2024-03-07T00:30:12;97705.13;;;3.54;100.00
31346;BME280;21711;49.708;18.568;2024-03-07T00:32:49;97705.25;;;3.66;100.00
31346;BME280;21711;49.708;18.568;2024-03-07T00:35:16;97702.47;;;3.79;100.00
31346;BME280;21711;49.708;18.568;2024-03-07T00:37:46;97701.41;;;3.68;100.00
31346;BME280;21711;49.708;18.568;2024-03-07T00:40:13;97703.84;;;3.63;100.00
31346;BME280;21711;49.708;18.568;2024-03-07T00:42:41;97700.31;;;3.58;100.00
31346;BME280;21711;49.708;18.568;2024-03-07T00:45:08;97699.66;;;3.81;100.00
31346;BME280;21711;49.708;18.568;2024-03-07T00:47:36;97697.84;;;3.81;100.00
31346;BME280;21711;49.708;18.568;2024-03-07T00:50:06;97697.91;;;3.56;100.00
31346;BME280;21711;49.708;18.568;2024-03-07T00:52:36;97698.78;;;3.68;100.00
31346;BME280;21711;49.708;18.568;2024-03-07T00:55:05;97698.94;;;3.92;100.00
31346;BME280;21711;49.708;18.568;2024-03-07T00:57:36;97693.53;;;4.06;100.00
31346;BME280;21711;49.708;18.568;2024-03-07T01:00:04;97698.00;;;4.05;100.00
31346;BME280;21711;49.708;18.568;2024-03-07T01:02:32;97695.94;;;3.70;100.00
31346;BME280;21711;49.708;18.568;2024-03-07T01:05:01;97700.25;;;3.64;100.00
31346;BME280;21711;49.708;18.568;2024-03-07T01:07:35;97686.84;;;3.73;100.00
31346;BME280;21711;49.708;18.568;2024-03-07T01:10:04;97693.78;;;3.86;100.00
31346;BME280;21711;49.708;18.568;2024-03-07T01:12:33;97693.84;;;3.98;100.00
31346;BME280;21711;49.708;18.568;2024-03-07T01:15:02;97693.53;;;3.87;100.00
31346;BME280;21711;49.708;18.568;2024-03-07T01:17:32;97687.59;;;3.99;100.00
31346;BME280;21711;49.708;18.568;2024-03-07T01:20:00;97696.47;;;3.98;100.00
31346;BME280;21711;49.708;18.568;2024-03-07T01:22:31;97685.69;;;4.06;100.00
31346;BME280;21711;49.708;18.568;2024-03-07T01:24:59;97689.84;;;3.95;100.00
31346;BME280;21711;49.708;18.568;2024-03-07T01:27:26;97684.63;;;3.95;100.00
31346;BME280;21711;49.708;18.568;2024-03-07T01:29:53;97686.28;;;3.89;100.00
31346;BME280;21711;49.708;18.568;2024-03-07T01:32:21;97688.47;;;3.92;100.00
31346;BME280;21711;49.708;18.568;2024-03-07T01:34:49;97688.16;;;3.82;100.00
31346;BME280;21711;49.708;18.568;2024-03-07T01:37:17;97696.00;;;4.01;100.00
31346;BME280;21711;49.708;18.568;2024-03-07T01:39:44;97691.81;;;3.81;100.00
31346;BME280;21711;49.708;18.568;2024-03-07T01:42:11;97693.94;;;3.91;100.00
31346;BME280;21711;49.708;18.568;2024-03-07T01:44:39;97695.22;;;3.81;100.00
31346;BME280;21711;49.708;18.568;2024-03-07T01:47:08;97690.56;;;3.65;100.00
31346;BME280;21711;49.708;18.568;2024-03-07T01:49:36;97695.72;;;3.90;100.00
31346;BME280;21711;49.708;18.568;2024-03-07T01:52:06;97690.06;;;3.93;100.00
31346;BME280;21711;49.708;18.568;2024-03-07T01:54:35;97683.97;;;4.00;100.00
31346;BME280;21711;49.708;18.568;2024-03-07T01:57:05;97691.66;;;3.94;100.00
31346;BME280;21711;49.708;18.568;2024-03-07T01:59:33;97679.97;;;3.78;100.00
31346;BME280;21711;49.708;18.568;2024-03-07T02:02:00;97681.34;;;4.00;100.00
31346;BME280;21711;49.708;18.568;2024-03-07T02:04:29;97686.28;;;3.89;100.00
31346;BME280;21711;49.708;18.568;2024-03-07T02:06:57;97683.66;;;3.71;100.00
31346;BME280;21711;49.708;18.568;2024-03-07T02:09:25;97691.44;;;3.77;100.00
31346;BME280;21711;49.708;18.568;2024-03-07T02:11:53;97693.25;;;3.95;100.00
31346;BME280;21711;49.708;18.568;2024-03-07T02:14:20;97690.50;;;3.72;100.00
31346;BME280;21711;49.708;18.568;2024-03-07T02:16:48;97689.25;;;3.93;100.00
31346;BME280;21711;49.708;18.568;2024-03-07T02:19:15;97677.75;;;3.75;100.00
31346;BME280;21711;49.708;18.568;2024-03-07T02:21:43;97673.59;;;3.49;100.00
31346;BME280;21711;49.708;18.568;2024-03-07T02:24:10;97672.63;;;3.50;100.00
31346;BME280;21711;49.708;18.568;2024-03-07T02:26:38;97675.75;;;3.59;100.00
31346;BME280;21711;49.708;18.568;2024-03-07T02:29:06;97666.41;;;3.25;100.00
31346;BME280;21711;49.708;18.568;2024-03-07T02:31:34;97671.22;;;3.47;100.00
31346;BME280;21711;49.708;18.568;2024-03-07T02:34:06;97674.16;;;3.58;100.00
31346;BME280;21711;49.708;18.568;2024-03-07T02:36:34;97673.69;;;3.61;100.00
31346;BME280;21711;49.708;18.568;2024-03-07T02:39:01;97665.00;;;3.67;100.00
31346;BME280;21711;49.708;18.568;2024-03-07T02:41:29;97654.41;;;3.80;100.00
31346;BME280;21711;49.708;18.568;2024-03-07T02:43:57;97661.63;;;3.60;100.00
31346;BME280;21711;49.708;18.568;2024-03-07T02:46:24;97665.50;;;3.76;100.00
31346;BME280;21711;49.708;18.568;2024-03-07T02:48:52;97663.47;;;3.78;100.00
31346;BME280;21711;49.708;18.568;2024-03-07T02:51:19;97658.53;;;3.88;100.00
31346;BME280;21711;49.708;18.568;2024-03-07T02:53:47;97662.31;;;3.92;100.00
31346;BME280;21711;49.708;18.568;2024-03-07T02:56:14;97646.97;;;3.96;100.00
31346;BME280;21711;49.708;18.568;2024-03-07T02:58:42;97654.75;;;3.84;100.00
31346;BME280;21711;49.708;18.568;2024-03-07T03:01:26;97652.84;;;3.73;100.00
31346;BME280;21711;49.708;18.568;2024-03-07T03:03:53;97652.34;;;3.83;100.00
31346;BME280;21711;49.708;18.568;2024-03-07T03:06:20;97649.44;;;3.91;100.00
31346;BME280;21711;49.708;18.568;2024-03-07T03:08:48;97646.75;;;3.79;100.00
31346;BME280;21711;49.708;18.568;2024-03-07T03:11:15;97649.22;;;3.55;100.00
31346;BME280;21711;49.708;18.568;2024-03-07T03:13:43;97650.13;;;3.42;100.00
31346;BME280;21711;49.708;18.568;2024-03-07T03:16:10;97650.16;;;3.61;100.00
31346;BME280;21711;49.708;18.568;2024-03-07T03:18:37;97656.13;;;3.49;100.00
31346;BME280;21711;49.708;18.568;2024-03-07T03:21:05;97657.94;;;3.67;100.00
31346;BME280;21711;49.708;18.568;2024-03-07T03:23:33;97662.00;;;3.82;100.00
31346;BME280;21711;49.708;18.568;2024-03-07T03:26:01;97662.94;;;3.50;100.00
31346;BME280;21711;49.708;18.568;2024-03-07T03:28:29;97658.59;;;3.44;100.00
31346;BME280;21711;49.708;18.568;2024-03-07T03:30:56;97665.56;;;3.50;100.00
31346;BME280;21711;49.708;18.568;2024-03-07T03:33:24;97657.72;;;3.50;100.00
31346;BME280;21711;49.708;18.568;2024-03-07T03:35:52;97659.38;;;3.63;100.00
31346;BME280;21711;49.708;18.568;2024-03-07T03:38:19;97649.78;;;3.57;100.00
31346;BME280;21711;49.708;18.568;2024-03-07T03:40:47;97652.19;;;3.59;100.00
31346;BME280;21711;49.708;18.568;2024-03-07T03:43:15;97658.94;;;3.48;100.00
31346;BME280;21711;49.708;18.568;2024-03-07T03:45:42;97647.63;;;3.35;100.00
31346;BME280;21711;49.708;18.568;2024-03-07T03:48:10;97652.53;;;3.44;100.00
31346;BME280;21711;49.708;18.568;2024-03-07T03:50:37;97648.53;;;3.41;100.00
31346;BME280;21711;49.708;18.568;2024-03-07T03:53:05;97647.63;;;3.35;100.00
31346;BME280;21711;49.708;18.568;2024-03-07T03:55:32;97651.44;;;3.14;100.00
31346;BME280;21711;49.708;18.568;2024-03-07T03:58:00;97648.91;;;3.00;100.00
31346;BME280;21711;49.708;18.568;2024-03-07T04:00:27;97656.47;;;2.83;100.00
31346;BME280;21711;49.708;18.568;2024-03-07T04:02:55;97656.53;;;2.76;100.00
31346;BME280;21711;49.708;18.568;2024-03-07T04:05:23;97651.75;;;2.99;100.00
31346;BME280;21711;49.708;18.568;2024-03-07T04:07:50;97666.94;;;2.83;100.00
31346;BME280;21711;49.708;18.568;2024-03-07T04:10:18;97659.56;;;2.73;100.00
31346;BME280;21711;49.708;18.568;2024-03-07T04:12:46;97658.75;;;2.73;100.00
31346;BME280;21711;49.708;18.568;2024-03-07T04:15:15;97669.53;;;2.83;100.00
31346;BME280;21711;49.708;18.568;2024-03-07T04:17:46;97663.44;;;2.64;100.00
31346;BME280;21711;49.708;18.568;2024-03-07T04:20:14;97656.78;;;2.68;100.00
31346;BME280;21711;49.708;18.568;2024-03-07T04:22:46;97656.94;;;2.73;100.00
31346;BME280;21711;49.708;18.568;2024-03-07T04:25:14;97656.41;;;2.65;100.00
31346;BME280;21711;49.708;18.568;2024-03-07T04:27:42;97651.09;;;2.78;100.00
31346;BME280;21711;49.708;18.568;2024-03-07T04:30:09;97652.41;;;2.87;100.00
31346;BME280;21711;49.708;18.568;2024-03-07T04:32:38;97659.56;;;2.99;100.00
31346;BME280;21711;49.708;18.568;2024-03-07T04:35:07;97652.31;;;3.01;100.00
31346;BME280;21711;49.708;18.568;2024-03-07T04:37:38;97649.50;;;3.02;100.00
31346;BME280;21711;49.708;18.568;2024-03-07T04:40:09;97659.66;;;2.85;100.00
31346;BME280;21711;49.708;18.568;2024-03-07T04:42:46;97652.81;;;2.91;100.00
31346;BME280;21711;49.708;18.568;2024-03-07T04:45:17;97641.97;;;2.87;100.00
31346;BME280;21711;49.708;18.568;2024-03-07T04:47:46;97645.13;;;2.96;100.00
31346;BME280;21711;49.708;18.568;2024-03-07T04:50:15;97653.38;;;3.19;100.00
31346;BME280;21711;49.708;18.568;2024-03-07T04:52:46;97653.53;;;2.98;100.00
31346;BME280;21711;49.708;18.568;2024-03-07T04:55:16;97653.53;;;2.98;100.00
31346;BME280;21711;49.708;18.568;2024-03-07T04:57:44;97654.72;;;3.02;100.00
31346;BME280;21711;49.708;18.568;2024-03-07T05:00:13;97659.09;;;2.83;100.00
31346;BME280;21711;49.708;18.568;2024-03-07T05:02:46;97642.94;;;2.93;100.00
31346;BME280;21711;49.708;18.568;2024-03-07T05:05:15;97662.06;;;2.87;100.00
31346;BME280;21711;49.708;18.568;2024-03-07T05:07:50;97657.91;;;2.47;100.00
31346;BME280;21711;49.708;18.568;2024-03-07T05:10:18;97668.94;;;2.81;100.00
31346;BME280;21711;49.708;18.568;2024-03-07T05:12:45;97677.63;;;2.75;100.00
31346;BME280;21711;49.708;18.568;2024-03-07T05:15:13;97675.91;;;2.87;100.00
31346;BME280;21711;49.708;18.568;2024-03-07T05:17:40;97678.94;;;2.91;100.00
31346;BME280;21711;49.708;18.568;2024-03-07T05:20:11;97683.41;;;3.09;100.00
31346;BME280;21711;49.708;18.568;2024-03-07T05:22:41;97687.50;;;2.98;100.00
31346;BME280;21711;49.708;18.568;2024-03-07T05:25:19;97684.06;;;3.05;100.00
31346;BME280;21711;49.708;18.568;2024-03-07T05:27:47;97674.84;;;3.02;100.00
31346;BME280;21711;49.708;18.568;2024-03-07T05:30:17;97677.06;;;2.98;100.00
31346;BME280;21711;49.708;18.568;2024-03-07T05:32:44;97682.78;;;2.88;100.00
31346;BME280;21711;49.708;18.568;2024-03-07T05:35:12;97680.97;;;2.82;100.00
31346;BME280;21711;49.708;18.568;2024-03-07T05:37:39;97686.84;;;3.10;100.00
31346;BME280;21711;49.708;18.568;2024-03-07T05:40:14;97685.97;;;2.91;100.00
31346;BME280;21711;49.708;18.568;2024-03-07T05:42:42;97684.94;;;2.92;100.00
31346;BME280;21711;49.708;18.568;2024-03-07T05:45:09;97697.25;;;3.17;100.00
31346;BME280;21711;49.708;18.568;2024-03-07T05:47:37;97692.63;;;3.12;100.00
31346;BME280;21711;49.708;18.568;2024-03-07T05:50:06;97700.25;;;2.88;100.00
31346;BME280;21711;49.708;18.568;2024-03-07T05:52:34;97700.69;;;3.10;100.00
31346;BME280;21711;49.708;18.568;2024-03-07T05:55:03;97699.84;;;3.17;100.00
31346;BME280;21711;49.708;18.568;2024-03-07T05:57:33;97704.84;;;3.18;100.00
31346;BME280;21711;49.708;18.568;2024-03-07T06:00:01;97703.78;;;3.00;100.00
31346;BME280;21711;49.708;18.568;2024-03-07T06:02:39;97709.97;;;3.06;100.00
31346;BME280;21711;49.708;18.568;2024-03-07T06:05:07;97707.47;;;2.93;100.00
31346;BME280;21711;49.708;18.568;2024-03-07T06:07:43;97720.56;;;2.86;100.00
31346;BME280;21711;49.708;18.568;2024-03-07T06:10:13;97716.03;;;3.00;100.00
31346;BME280;21711;49.708;18.568;2024-03-07T06:12:44;97712.94;;;2.84;100.00
31346;BME280;21711;49.708;18.568;2024-03-07T06:15:31;97720.09;;;2.96;100.00
31346;BME280;21711;49.708;18.568;2024-03-07T06:17:58;97719.72;;;2.53;100.00
31346;BME280;21711;49.708;18.568;2024-03-07T06:20:27;97712.97;;;2.78;100.00
31346;BME280;21711;49.708;18.568;2024-03-07T06:22:54;97720.56;;;2.47;100.00
31346;BME280;21711;49.708;18.568;2024-03-07T06:25:21;97723.94;;;2.54;100.00
31346;BME280;21711;49.708;18.568;2024-03-07T06:28:05;97730.88;;;2.35;100.00
31346;BME280;21711;49.708;18.568;2024-03-07T06:30:38;97724.38;;;2.51;100.00
31346;BME280;21711;49.708;18.568;2024-03-07T06:33:07;97731.16;;;2.59;100.00
31346;BME280;21711;49.708;18.568;2024-03-07T06:35:34;97726.78;;;2.53;100.00
31346;BME280;21711;49.708;18.568;2024-03-07T06:38:08;97732.59;;;2.55;100.00
31346;BME280;21711;49.708;18.568;2024-03-07T06:40:39;97738.16;;;2.65;100.00
31346;BME280;21711;49.708;18.568;2024-03-07T06:43:08;97730.94;;;2.67;100.00
31346;BME280;21711;49.708;18.568;2024-03-07T06:45:38;97735.06;;;2.43;100.00
31346;BME280;21711;49.708;18.568;2024-03-07T06:48:06;97737.66;;;2.43;100.00
31346;BME280;21711;49.708;18.568;2024-03-07T06:50:37;97742.59;;;2.12;100.00
31346;BME280;21711;49.708;18.568;2024-03-07T06:53:06;97738.50;;;2.36;100.00
31346;BME280;21711;49.708;18.568;2024-03-07T06:55:36;97743.00;;;2.61;100.00
31346;BME280;21711;49.708;18.568;2024-03-07T06:58:05;97737.97;;;2.60;100.00
31346;BME280;21711;49.708;18.568;2024-03-07T07:00:33;97736.22;;;2.54;100.00
31346;BME280;21711;49.708;18.568;2024-03-07T07:03:05;97735.66;;;2.45;100.00
31346;BME280;21711;49.708;18.568;2024-03-07T07:05:33;97737.00;;;2.54;100.00
31346;BME280;21711;49.708;18.568;2024-03-07T07:08:01;97743.22;;;2.53;100.00
31346;BME280;21711;49.708;18.568;2024-03-07T07:10:28;97739.94;;;2.71;100.00
31346;BME280;21711;49.708;18.568;2024-03-07T07:12:56;97746.41;;;2.62;100.00
31346;BME280;21711;49.708;18.568;2024-03-07T07:15:24;97748.16;;;2.75;100.00
31346;BME280;21711;49.708;18.568;2024-03-07T07:17:51;97743.56;;;2.63;100.00
31346;BME280;21711;49.708;18.568;2024-03-07T07:20:19;97750.78;;;2.75;100.00
31346;BME280;21711;49.708;18.568;2024-03-07T07:22:48;97751.34;;;2.77;100.00
31346;BME280;21711;49.708;18.568;2024-03-07T07:25:16;97756.28;;;2.53;100.00
31346;BME280;21711;49.708;18.568;2024-03-07T07:27:45;97754.69;;;2.52;100.00
31346;BME280;21711;49.708;18.568;2024-03-07T07:30:15;97749.53;;;2.78;100.00
31346;BME280;21711;49.708;18.568;2024-03-07T07:32:43;97756.78;;;2.75;100.00
31346;BME280;21711;49.708;18.568;2024-03-07T07:35:12;97747.69;;;2.46;100.00
31346;BME280;21711;49.708;18.568;2024-03-07T07:37:45;97753.56;;;2.28;100.00
31346;BME280;21711;49.708;18.568;2024-03-07T07:40:17;97761.19;;;2.29;100.00
31346;BME280;21711;49.708;18.568;2024-03-07T07:42:51;97757.19;;;2.33;100.00
31346;BME280;21711;49.708;18.568;2024-03-07T07:45:21;97747.41;;;2.61;100.00
31346;BME280;21711;49.708;18.568;2024-03-07T07:47:51;97753.88;;;2.52;100.00
31346;BME280;21711;49.708;18.568;2024-03-07T07:50:22;97753.47;;;2.55;100.00
31346;BME280;21711;49.708;18.568;2024-03-07T07:52:54;97749.41;;;2.66;100.00
31346;BME280;21711;49.708;18.568;2024-03-07T07:55:24;97760.13;;;2.89;100.00
31346;BME280;21711;49.708;18.568;2024-03-07T07:57:57;97753.00;;;2.71;100.00
31346;BME280;21711;49.708;18.568;2024-03-07T08:00:28;97761.00;;;2.76;100.00
31346;BME280;21711;49.708;18.568;2024-03-07T08:03:00;97747.38;;;2.22;100.00
31346;BME280;21711;49.708;18.568;2024-03-07T08:05:31;97752.47;;;1.96;100.00
31346;BME280;21711;49.708;18.568;2024-03-07T08:08:05;97758.03;;;2.14;100.00
31346;BME280;21711;49.708;18.568;2024-03-07T08:10:36;97755.97;;;2.29;100.00
31346;BME280;21711;49.708;18.568;2024-03-07T08:13:05;97758.03;;;2.20;100.00
31346;BME280;21711;49.708;18.568;2024-03-07T08:15:37;97764.25;;;2.26;100.00
31346;BME280;21711;49.708;18.568;2024-03-07T08:18:05;97751.16;;;2.33;100.00
31346;BME280;21711;49.708;18.568;2024-03-07T08:20:37;97761.16;;;2.43;100.00
31346;BME280;21711;49.708;18.568;2024-03-07T08:23:07;97763.50;;;2.58;100.00
31346;BME280;21711;49.708;18.568;2024-03-07T08:25:34;97767.19;;;2.43;100.00
31346;BME280;21711;49.708;18.568;2024-03-07T08:28:02;97763.38;;;2.39;100.00
31346;BME280;21711;49.708;18.568;2024-03-07T08:30:29;97761.13;;;1.90;100.00
31346;BME280;21711;49.708;18.568;2024-03-07T08:32:58;97774.53;;;2.01;100.00
31346;BME280;21711;49.708;18.568;2024-03-07T08:35:33;97780.38;;;1.89;100.00
31346;BME280;21711;49.708;18.568;2024-03-07T08:38:01;97773.72;;;2.00;100.00
31346;BME280;21711;49.708;18.568;2024-03-07T08:40:29;97773.22;;;2.37;100.00
31346;BME280;21711;49.708;18.568;2024-03-07T08:43:02;97774.84;;;2.38;100.00
31346;BME280;21711;49.708;18.568;2024-03-07T08:45:30;97786.03;;;2.45;100.00
31346;BME280;21711;49.708;18.568;2024-03-07T08:48:03;97775.59;;;2.52;100.00
31346;BME280;21711;49.708;18.568;2024-03-07T08:50:37;97779.00;;;2.53;100.00
31346;BME280;21711;49.708;18.568;2024-03-07T08:53:06;97781.78;;;2.58;100.00
31346;BME280;21711;49.708;18.568;2024-03-07T08:55:34;97786.00;;;2.59;100.00
31346;BME280;21711;49.708;18.568;2024-03-07T08:58:04;97782.13;;;2.75;100.00
31346;BME280;21711;49.708;18.568;2024-03-07T09:00:34;97792.34;;;2.76;100.00
31346;BME280;21711;49.708;18.568;2024-03-07T09:03:06;97785.47;;;2.82;100.00
31346;BME280;21711;49.708;18.568;2024-03-07T09:05:39;97788.78;;;2.64;100.00
31346;BME280;21711;49.708;18.568;2024-03-07T09:08:06;97792.59;;;2.68;100.00
31346;BME280;21711;49.708;18.568;2024-03-07T09:10:35;97793.25;;;2.57;100.00
31346;BME280;21711;49.708;18.568;2024-03-07T09:13:02;97789.28;;;2.47;100.00
31346;BME280;21711;49.708;18.568;2024-03-07T09:15:30;97794.28;;;2.42;100.00
31346;BME280;21711;49.708;18.568;2024-03-07T09:17:57;97790.81;;;2.62;100.00
31346;BME280;21711;49.708;18.568;2024-03-07T09:20:26;97797.13;;;2.41;100.00
31346;BME280;21711;49.708;18.568;2024-03-07T09:22:53;97798.38;;;2.25;100.00
31346;BME280;21711;49.708;18.568;2024-03-07T09:25:23;97790.97;;;2.01;100.00
31346;BME280;21711;49.708;18.568;2024-03-07T09:27:53;97802.00;;;2.23;100.00
31346;BME280;21711;49.708;18.568;2024-03-07T09:30:21;97803.03;;;2.02;100.00
31346;BME280;21711;49.708;18.568;2024-03-07T09:32:56;97802.97;;;2.22;100.00
31346;BME280;21711;49.708;18.568;2024-03-07T09:35:23;97809.66;;;2.12;100.00
31346;BME280;21711;49.708;18.568;2024-03-07T09:37:51;97809.03;;;2.09;100.00
31346;BME280;21711;49.708;18.568;2024-03-07T09:40:19;97809.84;;;2.10;100.00
31346;BME280;21711;49.708;18.568;2024-03-07T09:42:52;97815.06;;;2.03;100.00
31346;BME280;21711;49.708;18.568;2024-03-07T09:45:23;97808.03;;;2.10;100.00
31346;BME280;21711;49.708;18.568;2024-03-07T09:47:56;97813.22;;;2.17;100.00
31346;BME280;21711;49.708;18.568;2024-03-07T09:50:26;97810.25;;;2.14;100.00
31346;BME280;21711;49.708;18.568;2024-03-07T09:52:56;97808.81;;;2.31;100.00
31346;BME280;21711;49.708;18.568;2024-03-07T09:59:52;97822.84;;;2.30;100.00
31346;BME280;21711;49.708;18.568;2024-03-07T10:02:22;97811.59;;;2.36;100.00
31346;BME280;21711;49.708;18.568;2024-03-07T10:04:51;97809.53;;;2.45;100.00
31346;BME280;21711;49.708;18.568;2024-03-07T10:07:21;97818.97;;;2.46;100.00
31346;BME280;21711;49.708;18.568;2024-03-07T10:09:49;97812.16;;;2.45;100.00
31346;BME280;21711;49.708;18.568;2024-03-07T10:12:19;97819.59;;;2.42;100.00
31346;BME280;21711;49.708;18.568;2024-03-07T10:14:53;97818.78;;;2.48;100.00
31346;BME280;21711;49.708;18.568;2024-03-07T10:17:24;97814.66;;;2.06;100.00
31346;BME280;21711;49.708;18.568;2024-03-07T10:19:53;97813.88;;;1.99;100.00
31346;BME280;21711;49.708;18.568;2024-03-07T10:22:22;97817.06;;;2.15;100.00
31346;BME280;21711;49.708;18.568;2024-03-07T10:24:51;97815.84;;;2.24;100.00
31346;BME280;21711;49.708;18.568;2024-03-07T10:27:20;97815.66;;;2.12;100.00
31346;BME280;21711;49.708;18.568;2024-03-07T10:29:48;97804.72;;;2.42;100.00
31346;BME280;21711;49.708;18.568;2024-03-07T10:32:19;97817.25;;;2.06;100.00
31346;BME280;21711;49.708;18.568;2024-03-07T10:34:47;97815.41;;;2.34;100.00
31346;BME280;21711;49.708;18.568;2024-03-07T10:37:15;97815.84;;;2.24;100.00
31346;BME280;21711;49.708;18.568;2024-03-07T10:39:44;97806.59;;;2.28;100.00
31346;BME280;21711;49.708;18.568;2024-03-07T10:42:16;97812.66;;;2.08;100.00
31346;BME280;21711;49.708;18.568;2024-03-07T10:44:46;97824.28;;;2.13;100.00
31346;BME280;21711;49.708;18.568;2024-03-07T10:47:19;97819.44;;;2.23;100.00
31346;BME280;21711;49.708;18.568;2024-03-07T10:50:16;97820.03;;;2.18;100.00
31346;BME280;21711;49.708;18.568;2024-03-07T10:53:10;97818.88;;;2.07;100.00
31346;BME280;21711;49.708;18.568;2024-03-07T10:59:16;97813.03;;;2.12;100.00
31346;BME280;21711;49.708;18.568;2024-03-07T11:04:22;97821.44;;;2.28;100.00
31346;BME280;21711;49.708;18.568;2024-03-07T11:06:50;97817.03;;;2.28;100.00
31346;BME280;21711;49.708;18.568;2024-03-07T11:09:18;97816.38;;;2.40;100.00
31346;BME280;21711;49.708;18.568;2024-03-07T11:12:01;97814.47;;;2.01;100.00
31346;BME280;21711;49.708;18.568;2024-03-07T11:14:31;97812.84;;;2.20;100.00
31346;BME280;21711;49.708;18.568;2024-03-07T11:16:59;97813.00;;;2.39;100.00
31346;BME280;21711;49.708;18.568;2024-03-07T11:19:31;97814.22;;;2.23;100.00
31346;BME280;21711;49.708;18.568;2024-03-07T11:21:59;97821.59;;;2.40;100.00
31346;BME280;21711;49.708;18.568;2024-03-07T11:24:30;97816.31;;;2.60;100.00
31346;BME280;21711;49.708;18.568;2024-03-07T11:27:04;97820.59;;;2.47;100.00
31346;BME280;21711;49.708;18.568;2024-03-07T11:29:48;97814.59;;;2.33;100.00
31346;BME280;21711;49.708;18.568;2024-03-07T11:32:21;97813.41;;;2.22;100.00
31346;BME280;21711;49.708;18.568;2024-03-07T11:34:50;97817.03;;;2.28;100.00
31346;BME280;21711;49.708;18.568;2024-03-07T11:37:38;97806.19;;;2.25;100.00
31346;BME280;21711;49.708;18.568;2024-03-07T11:43:06;97815.66;;;2.19;100.00
31346;BME280;21711;49.708;18.568;2024-03-07T11:45:34;97811.38;;;2.38;100.00
31346;BME280;21711;49.708;18.568;2024-03-07T11:48:06;97810.06;;;2.02;100.00
31346;BME280;21711;49.708;18.568;2024-03-07T11:50:39;97811.47;;;1.97;100.00
31346;BME280;21711;49.708;18.568;2024-03-07T11:53:08;97828.06;;;2.30;100.00
31346;BME280;21711;49.708;18.568;2024-03-07T11:55:38;97811.41;;;2.25;100.00
31346;BME280;21711;49.708;18.568;2024-03-07T11:58:13;97826.28;;;2.17;100.00
31346;BME280;21711;49.708;18.568;2024-03-07T12:00:42;97824.44;;;2.45;100.00
31346;BME280;21711;49.708;18.568;2024-03-07T12:03:16;97825.88;;;2.27;100.00
31346;BME280;21711;49.708;18.568;2024-03-07T12:05:49;97818.81;;;2.28;100.00
31346;BME280;21711;49.708;18.568;2024-03-07T12:08:19;97815.44;;;2.27;100.00
31346;BME280;21711;49.708;18.568;2024-03-07T12:10:52;97821.06;;;2.17;100.00
31346;BME280;21711;49.708;18.568;2024-03-07T12:13:25;97819.09;;;1.99;100.00
31346;BME280;21711;49.708;18.568;2024-03-07T12:15:54;97817.69;;;2.10;100.00
31346;BME280;21711;49.708;18.568;2024-03-07T12:18:23;97816.44;;;2.33;100.00
31346;BME280;21711;49.708;18.568;2024-03-07T12:20:52;97820.09;;;2.12;100.00
31346;BME280;21711;49.708;18.568;2024-03-07T12:23:26;97820.81;;;2.39;100.00
31346;BME280;21711;49.708;18.568;2024-03-07T12:26:02;97824.34;;;2.58;100.00
31346;BME280;21711;49.708;18.568;2024-03-07T12:28:31;97809.69;;;2.64;100.00
31346;BME280;21711;49.708;18.568;2024-03-07T12:31:02;97809.06;;;2.69;100.00
31346;BME280;21711;49.708;18.568;2024-03-07T12:33:32;97809.25;;;2.74;100.00
31346;BME280;21711;49.708;18.568;2024-03-07T12:36:07;97809.34;;;2.47;100.00
31346;BME280;21711;49.708;18.568;2024-03-07T12:38:37;97803.25;;;2.60;100.00
31346;BME280;21711;49.708;18.568;2024-03-07T12:41:08;97810.59;;;2.31;100.00
31346;BME280;21711;49.708;18.568;2024-03-07T12:43:43;97806.94;;;2.45;100.00
31346;BME280;21711;49.708;18.568;2024-03-07T12:46:11;97808.91;;;2.57;100.00
31346;BME280;21711;49.708;18.568;2024-03-07T12:48:39;97810.81;;;2.82;100.00
31346;BME280;21711;49.708;18.568;2024-03-07T12:51:09;97807.91;;;2.97;100.00
31346;BME280;21711;49.708;18.568;2024-03-07T12:53:37;97803.63;;;2.70;100.00
31346;BME280;21711;49.708;18.568;2024-03-07T12:56:05;97800.84;;;2.58;100.00
31346;BME280;21711;49.708;18.568;2024-03-07T12:58:32;97805.00;;;2.14;100.00
31346;BME280;21711;49.708;18.568;2024-03-07T13:01:00;97807.44;;;2.15;100.00
31346;BME280;21711;49.708;18.568;2024-03-07T13:03:28;97809.66;;;2.12;100.00
31346;BME280;21711;49.708;18.568;2024-03-07T13:05:59;97808.28;;;1.82;100.00
31346;BME280;21711;49.708;18.568;2024-03-07T13:08:29;97806.88;;;1.79;100.00
31346;BME280;21711;49.708;18.568;2024-03-07T13:10:57;97796.00;;;1.96;100.00
31346;BME280;21711;49.708;18.568;2024-03-07T13:13:27;97794.78;;;2.05;100.00
31346;BME280;21711;49.708;18.568;2024-03-07T13:15:54;97805.06;;;1.87;100.00